sensor_id;sensor_type;location;lat;lon;timestamp;P1;durP1;ratioP1;P2;durP2;ratioP2
70796;SDS011;63842;52.144;5.360;2024-01-30T00:00:43;15.98;;;7.75;;
70796;SDS011;63842;52.144;5.360;2024-01-30T00:03:11;15.85;;;8.07;;
70796;SDS011;63842;52.144;5.360;2024-01-30T00:05:40;16.38;;;8.02;;
70796;SDS011;63842;52.144;5.360;2024-01-30T06:32:04;15.50;;;6.13;;
70796;SDS011;63842;52.144;5.360;2024-01-30T06:34:38;16.90;;;5.90;;
70796;SDS011;63842;52.144;5.360;2024-01-30T06:37:09;14.07;;;6.35;;
70796;SDS011;63842;52.144;5.360;2024-01-30T06:39:46;15.93;;;6.88;;
70796;SDS011;63842;52.144;5.360;2024-01-30T06:42:15;15.05;;;7.25;;
70796;SDS011;63842;52.144;5.360;2024-01-30T06:44:43;17.58;;;7.72;;
70796;SDS011;63842;52.144;5.360;2024-01-30T06:47:16;17.55;;;7.72;;
70796;SDS011;63842;52.144;5.360;2024-01-30T06:49:45;13.75;;;6.53;;
70796;SDS011;63842;52.144;5.360;2024-01-30T06:52:15;13.75;;;6.57;;
70796;SDS011;63842;52.144;5.360;2024-01-30T06:54:55;14.00;;;6.70;;
70796;SDS011;63842;52.144;5.360;2024-01-30T06:57:27;14.30;;;6.35;;
70796;SDS011;63842;52.144;5.360;2024-01-30T06:59:59;14.25;;;6.15;;
70796;SDS011;63842;52.144;5.360;2024-01-30T07:03:00;13.98;;;6.40;;
70796;SDS011;63842;52.144;5.360;2024-01-30T07:07:59;15.40;;;6.22;;
70796;SDS011;63842;52.144;5.360;2024-01-30T07:10:34;15.95;;;6.80;;
70796;SDS011;63842;52.144;5.360;2024-01-30T07:13:17;13.38;;;6.05;;
70796;SDS011;63842;52.144;5.360;2024-01-30T07:16:54;14.57;;;6.35;;
70796;SDS011;63842;52.144;5.360;2024-01-30T07:19:53;12.98;;;5.80;;
70796;SDS011;63842;52.144;5.360;2024-01-30T07:22:31;13.88;;;6.47;;
70796;SDS011;63842;52.144;5.360;2024-01-30T07:25:01;13.80;;;5.80;;
70796;SDS011;63842;52.144;5.360;2024-01-30T07:28:29;15.35;;;6.40;;
70796;SDS011;63842;52.144;5.360;2024-01-30T07:31:00;13.75;;;6.70;;
70796;SDS011;63842;52.144;5.360;2024-01-30T07:33:28;12.80;;;6.40;;
70796;SDS011;63842;52.144;5.360;2024-01-30T07:35:56;15.18;;;6.47;;
70796;SDS011;63842;52.144;5.360;2024-01-30T07:38:24;13.60;;;6.45;;
70796;SDS011;63842;52.144;5.360;2024-01-30T07:40:51;13.35;;;6.20;;
70796;SDS011;63842;52.144;5.360;2024-01-30T07:43:19;14.27;;;6.18;;
70796;SDS011;63842;52.144;5.360;2024-01-30T07:45:46;17.23;;;6.60;;
70796;SDS011;63842;52.144;5.360;2024-01-30T07:48:15;13.57;;;6.47;;
70796;SDS011;63842;52.144;5.360;2024-01-30T07:50:43;14.45;;;6.20;;
70796;SDS011;63842;52.144;5.360;2024-01-30T07:53:10;15.00;;;6.60;;
70796;SDS011;63842;52.144;5.360;2024-01-30T07:55:38;15.65;;;6.65;;
70796;SDS011;63842;52.144;5.360;2024-01-30T07:58:05;15.57;;;6.15;;
70796;SDS011;63842;52.144;5.360;2024-01-30T08:00:33;14.40;;;6.20;;
70796;SDS011;63842;52.144;5.360;2024-01-30T08:03:00;16.73;;;6.10;;
70796;SDS011;63842;52.144;5.360;2024-01-30T08:05:28;15.98;;;6.50;;
70796;SDS011;63842;52.144;5.360;2024-01-30T08:07:56;13.45;;;6.28;;
70796;SDS011;63842;52.144;5.360;2024-01-30T08:10:24;14.13;;;6.32;;
70796;SDS011;63842;52.144;5.360;2024-01-30T08:12:53;15.18;;;6.72;;
70796;SDS011;63842;52.144;5.360;2024-01-30T08:15:21;14.25;;;6.32;;
70796;SDS011;63842;52.144;5.360;2024-01-30T08:17:50;13.60;;;6.13;;
70796;SDS011;63842;52.144;5.360;2024-01-30T08:20:22;15.55;;;6.43;;
70796;SDS011;63842;52.144;5.360;2024-01-30T08:22:49;14.00;;;5.97;;
70796;SDS011;63842;52.144;5.360;2024-01-30T08:25:17;14.60;;;6.30;;
70796;SDS011;63842;52.144;5.360;2024-01-30T08:27:45;14.50;;;5.75;;
70796;SDS011;63842;52.144;5.360;2024-01-30T08:30:12;19.65;;;6.53;;
70796;SDS011;63842;52.144;5.360;2024-01-30T08:32:40;14.45;;;6.22;;
70796;SDS011;63842;52.144;5.360;2024-01-30T08:35:07;16.75;;;6.55;;
70796;SDS011;63842;52.144;5.360;2024-01-30T08:37:35;15.05;;;6.00;;
70796;SDS011;63842;52.144;5.360;2024-01-30T08:40:05;19.55;;;9.52;;
70796;SDS011;63842;52.144;5.360;2024-01-30T08:42:35;21.63;;;9.13;;
70796;SDS011;63842;52.144;5.360;2024-01-30T08:45:02;18.08;;;7.47;;
70796;SDS011;63842;52.144;5.360;2024-01-30T08:47:31;17.58;;;7.13;;
70796;SDS011;63842;52.144;5.360;2024-01-30T08:49:59;18.98;;;7.28;;
70796;SDS011;63842;52.144;5.360;2024-01-30T08:52:27;14.52;;;6.28;;
70796;SDS011;63842;52.144;5.360;2024-01-30T08:54:55;17.33;;;6.68;;
70796;SDS011;63842;52.144;5.360;2024-01-30T08:57:25;14.93;;;6.30;;
70796;SDS011;63842;52.144;5.360;2024-01-30T08:59:57;18.25;;;6.78;;
70796;SDS011;63842;52.144;5.360;2024-01-30T09:02:24;17.75;;;6.90;;
70796;SDS011;63842;52.144;5.360;2024-01-30T09:04:52;15.00;;;6.85;;
70796;SDS011;63842;52.144;5.360;2024-01-30T09:07:19;16.45;;;6.43;;
70796;SDS011;63842;52.144;5.360;2024-01-30T09:09:47;15.70;;;6.10;;
70796;SDS011;63842;52.144;5.360;2024-01-30T09:12:15;15.52;;;6.30;;
70796;SDS011;63842;52.144;5.360;2024-01-30T09:14:43;16.73;;;6.60;;
70796;SDS011;63842;52.144;5.360;2024-01-30T09:17:10;19.08;;;6.57;;
70796;SDS011;63842;52.144;5.360;2024-01-30T09:19:40;16.17;;;6.60;;
70796;SDS011;63842;52.144;5.360;2024-01-30T09:22:08;16.92;;;7.57;;
70796;SDS011;63842;52.144;5.360;2024-01-30T09:24:36;14.25;;;6.68;;
70796;SDS011;63842;52.144;5.360;2024-01-30T09:27:03;14.45;;;6.15;;
70796;SDS011;63842;52.144;5.360;2024-01-30T09:29:31;14.43;;;6.72;;
70796;SDS011;63842;52.144;5.360;2024-01-30T09:32:00;16.15;;;6.68;;
70796;SDS011;63842;52.144;5.360;2024-01-30T09:34:28;15.50;;;6.47;;
70796;SDS011;63842;52.144;5.360;2024-01-30T09:36:55;15.50;;;6.40;;
70796;SDS011;63842;52.144;5.360;2024-01-30T09:39:23;14.18;;;6.15;;
70796;SDS011;63842;52.144;5.360;2024-01-30T09:42:01;15.80;;;6.90;;
70796;SDS011;63842;52.144;5.360;2024-01-30T09:44:29;15.77;;;6.57;;
70796;SDS011;63842;52.144;5.360;2024-01-30T09:46:57;17.40;;;6.40;;
70796;SDS011;63842;52.144;5.360;2024-01-30T09:49:31;18.33;;;6.43;;
70796;SDS011;63842;52.144;5.360;2024-01-30T09:52:00;16.52;;;6.50;;
70796;SDS011;63842;52.144;5.360;2024-01-30T09:54:30;17.27;;;6.75;;
70796;SDS011;63842;52.144;5.360;2024-01-30T09:57:02;15.05;;;6.78;;
70796;SDS011;63842;52.144;5.360;2024-01-30T09:59:30;17.50;;;6.53;;
70796;SDS011;63842;52.144;5.360;2024-01-30T10:01:58;15.82;;;6.75;;
70796;SDS011;63842;52.144;5.360;2024-01-30T10:04:25;14.10;;;6.20;;
70796;SDS011;63842;52.144;5.360;2024-01-30T10:06:53;17.33;;;6.93;;
70796;SDS011;63842;52.144;5.360;2024-01-30T10:09:24;17.25;;;6.32;;
70796;SDS011;63842;52.144;5.360;2024-01-30T10:11:52;18.30;;;7.20;;
70796;SDS011;63842;52.144;5.360;2024-01-30T10:14:19;15.63;;;6.63;;
70796;SDS011;63842;52.144;5.360;2024-01-30T10:16:46;19.80;;;7.03;;
70796;SDS011;63842;52.144;5.360;2024-01-30T10:19:17;15.02;;;6.60;;
70796;SDS011;63842;52.144;5.360;2024-01-30T10:21:45;17.95;;;6.57;;
70796;SDS011;63842;52.144;5.360;2024-01-30T10:24:13;15.73;;;7.00;;
70796;SDS011;63842;52.144;5.360;2024-01-30T10:26:43;18.08;;;6.75;;
70796;SDS011;63842;52.144;5.360;2024-01-30T10:29:18;14.55;;;6.70;;
70796;SDS011;63842;52.144;5.360;2024-01-30T10:31:46;13.85;;;6.82;;
70796;SDS011;63842;52.144;5.360;2024-01-30T10:34:22;13.55;;;5.82;;
70796;SDS011;63842;52.144;5.360;2024-01-30T10:37:09;17.35;;;6.50;;
70796;SDS011;63842;52.144;5.360;2024-01-30T10:39:53;16.17;;;6.65;;
70796;SDS011;63842;52.144;5.360;2024-01-30T10:42:25;16.90;;;6.75;;
70796;SDS011;63842;52.144;5.360;2024-01-30T10:47:26;14.10;;;6.70;;
70796;SDS011;63842;52.144;5.360;2024-01-30T10:49:54;15.90;;;6.47;;
70796;SDS011;63842;52.144;5.360;2024-01-30T10:52:33;15.68;;;7.03;;
70796;SDS011;63842;52.144;5.360;2024-01-30T10:55:00;16.77;;;6.72;;
70796;SDS011;63842;52.144;5.360;2024-01-30T10:57:31;16.95;;;6.18;;
70796;SDS011;63842;52.144;5.360;2024-01-30T11:00:01;21.77;;;7.15;;
70796;SDS011;63842;52.144;5.360;2024-01-30T11:02:32;13.05;;;6.03;;
70796;SDS011;63842;52.144;5.360;2024-01-30T11:05:05;15.45;;;6.30;;
70796;SDS011;63842;52.144;5.360;2024-01-30T11:07:35;16.70;;;6.28;;
70796;SDS011;63842;52.144;5.360;2024-01-30T11:10:03;12.10;;;5.90;;
70796;SDS011;63842;52.144;5.360;2024-01-30T11:12:31;13.07;;;5.82;;
70796;SDS011;63842;52.144;5.360;2024-01-30T11:15:09;16.50;;;6.00;;
70796;SDS011;63842;52.144;5.360;2024-01-30T11:20:11;13.35;;;5.47;;
70796;SDS011;63842;52.144;5.360;2024-01-30T11:22:42;13.43;;;5.82;;
70796;SDS011;63842;52.144;5.360;2024-01-30T11:25:14;13.85;;;5.55;;
70796;SDS011;63842;52.144;5.360;2024-01-30T11:27:42;14.65;;;5.20;;
70796;SDS011;63842;52.144;5.360;2024-01-30T11:30:24;11.73;;;5.13;;
70796;SDS011;63842;52.144;5.360;2024-01-30T11:33:02;9.95;;;3.92;;
70796;SDS011;63842;52.144;5.360;2024-01-30T11:35:34;11.80;;;4.20;;
70796;SDS011;63842;52.144;5.360;2024-01-30T11:38:03;10.02;;;4.03;;
70796;SDS011;63842;52.144;5.360;2024-01-30T11:40:31;10.25;;;3.80;;
70796;SDS011;63842;52.144;5.360;2024-01-30T11:43:01;11.05;;;3.30;;
70796;SDS011;63842;52.144;5.360;2024-01-30T11:45:31;7.10;;;2.70;;
70796;SDS011;63842;52.144;5.360;2024-01-30T11:47:58;9.93;;;3.10;;
70796;SDS011;63842;52.144;5.360;2024-01-30T11:50:34;6.40;;;2.30;;
70796;SDS011;63842;52.144;5.360;2024-01-30T11:53:02;7.15;;;2.22;;
70796;SDS011;63842;52.144;5.360;2024-01-30T11:55:31;9.43;;;2.00;;
70796;SDS011;63842;52.144;5.360;2024-01-30T11:58:01;5.32;;;1.60;;
70796;SDS011;63842;52.144;5.360;2024-01-30T12:00:29;6.18;;;1.83;;
70796;SDS011;63842;52.144;5.360;2024-01-30T12:03:01;9.23;;;1.88;;
70796;SDS011;63842;52.144;5.360;2024-01-30T12:05:30;7.57;;;1.90;;
70796;SDS011;63842;52.144;5.360;2024-01-30T12:07:58;6.68;;;2.08;;
70796;SDS011;63842;52.144;5.360;2024-01-30T12:10:28;4.38;;;1.60;;
70796;SDS011;63842;52.144;5.360;2024-01-30T12:12:58;6.35;;;1.75;;
70796;SDS011;63842;52.144;5.360;2024-01-30T12:15:27;5.72;;;1.70;;
70796;SDS011;63842;52.144;5.360;2024-01-30T12:18:03;7.22;;;1.95;;
70796;SDS011;63842;52.144;5.360;2024-01-30T12:20:31;7.20;;;2.10;;
70796;SDS011;63842;52.144;5.360;2024-01-30T12:23:00;7.78;;;2.35;;
70796;SDS011;63842;52.144;5.360;2024-01-30T12:25:30;6.90;;;2.40;;
70796;SDS011;63842;52.144;5.360;2024-01-30T12:27:58;8.43;;;2.40;;
70796;SDS011;63842;52.144;5.360;2024-01-30T12:30:27;10.73;;;3.00;;
70796;SDS011;63842;52.144;5.360;2024-01-30T12:35:25;7.57;;;2.60;;
70796;SDS011;63842;52.144;5.360;2024-01-30T12:38:11;10.80;;;2.33;;
70796;SDS011;63842;52.144;5.360;2024-01-30T12:40:57;6.90;;;2.33;;
70796;SDS011;63842;52.144;5.360;2024-01-30T12:43:25;6.47;;;2.17;;
70796;SDS011;63842;52.144;5.360;2024-01-30T12:46:03;9.63;;;2.60;;
70796;SDS011;63842;52.144;5.360;2024-01-30T12:48:32;6.50;;;2.25;;
70796;SDS011;63842;52.144;5.360;2024-01-30T12:51:00;7.88;;;2.17;;
70796;SDS011;63842;52.144;5.360;2024-01-30T12:53:29;7.35;;;2.20;;
70796;SDS011;63842;52.144;5.360;2024-01-30T12:55:59;9.90;;;2.70;;
70796;SDS011;63842;52.144;5.360;2024-01-30T12:58:30;10.70;;;2.60;;
70796;SDS011;63842;52.144;5.360;2024-01-30T13:00:58;8.07;;;2.35;;
70796;SDS011;63842;52.144;5.360;2024-01-30T13:03:28;6.85;;;2.20;;
70796;SDS011;63842;52.144;5.360;2024-01-30T13:05:55;10.23;;;2.63;;
70796;SDS011;63842;52.144;5.360;2024-01-30T13:08:23;8.80;;;2.50;;
70796;SDS011;63842;52.144;5.360;2024-01-30T13:10:53;8.23;;;2.38;;
70796;SDS011;63842;52.144;5.360;2024-01-30T13:13:22;7.70;;;2.45;;
70796;SDS011;63842;52.144;5.360;2024-01-30T13:15:52;7.82;;;2.20;;
70796;SDS011;63842;52.144;5.360;2024-01-30T13:18:24;8.57;;;2.13;;
70796;SDS011;63842;52.144;5.360;2024-01-30T13:20:52;6.35;;;1.85;;
70796;SDS011;63842;52.144;5.360;2024-01-30T13:23:20;5.05;;;1.70;;
70796;SDS011;63842;52.144;5.360;2024-01-30T13:25:48;5.20;;;1.67;;
70796;SDS011;63842;52.144;5.360;2024-01-30T13:28:18;6.68;;;1.20;;
70796;SDS011;63842;52.144;5.360;2024-01-30T13:30:47;4.07;;;1.15;;
70796;SDS011;63842;52.144;5.360;2024-01-30T13:33:17;4.28;;;1.27;;
70796;SDS011;63842;52.144;5.360;2024-01-30T13:35:47;4.97;;;1.30;;
70796;SDS011;63842;52.144;5.360;2024-01-30T13:38:17;5.55;;;1.15;;
70796;SDS011;63842;52.144;5.360;2024-01-30T13:40:49;4.13;;;1.30;;
70796;SDS011;63842;52.144;5.360;2024-01-30T13:43:16;4.25;;;1.50;;
70796;SDS011;63842;52.144;5.360;2024-01-30T13:45:44;3.17;;;1.20;;
70796;SDS011;63842;52.144;5.360;2024-01-30T13:48:12;3.40;;;1.35;;
70796;SDS011;63842;52.144;5.360;2024-01-30T13:50:41;4.00;;;1.30;;
70796;SDS011;63842;52.144;5.360;2024-01-30T13:53:14;6.32;;;1.48;;
70796;SDS011;63842;52.144;5.360;2024-01-30T13:55:45;4.90;;;1.52;;
70796;SDS011;63842;52.144;5.360;2024-01-30T13:58:16;4.82;;;1.52;;
70796;SDS011;63842;52.144;5.360;2024-01-30T14:00:43;8.93;;;1.50;;
70796;SDS011;63842;52.144;5.360;2024-01-30T14:03:11;9.75;;;1.88;;
70796;SDS011;63842;52.144;5.360;2024-01-30T14:05:42;6.07;;;1.75;;
70796;SDS011;63842;52.144;5.360;2024-01-30T14:08:13;5.10;;;1.63;;
70796;SDS011;63842;52.144;5.360;2024-01-30T14:11:07;8.23;;;1.85;;
70796;SDS011;63842;52.144;5.360;2024-01-30T14:13:37;5.57;;;1.50;;
70796;SDS011;63842;52.144;5.360;2024-01-30T14:16:15;6.20;;;1.88;;
70796;SDS011;63842;52.144;5.360;2024-01-30T14:18:44;6.70;;;1.80;;
70796;SDS011;63842;52.144;5.360;2024-01-30T14:21:14;7.43;;;1.95;;
70796;SDS011;63842;52.144;5.360;2024-01-30T14:23:51;7.10;;;2.00;;
70796;SDS011;63842;52.144;5.360;2024-01-30T14:26:19;5.15;;;1.55;;
70796;SDS011;63842;52.144;5.360;2024-01-30T14:28:51;5.57;;;1.50;;
70796;SDS011;63842;52.144;5.360;2024-01-30T14:31:19;5.22;;;1.50;;
70796;SDS011;63842;52.144;5.360;2024-01-30T14:33:58;4.50;;;1.33;;
70796;SDS011;63842;52.144;5.360;2024-01-30T14:36:33;5.30;;;1.38;;
70796;SDS011;63842;52.144;5.360;2024-01-30T14:39:00;5.22;;;1.40;;
70796;SDS011;63842;52.144;5.360;2024-01-30T14:41:29;8.10;;;1.48;;
70796;SDS011;63842;52.144;5.360;2024-01-30T14:43:57;4.90;;;1.50;;
70796;SDS011;63842;52.144;5.360;2024-01-30T14:46:24;7.82;;;1.55;;
70796;SDS011;63842;52.144;5.360;2024-01-30T14:48:53;5.28;;;1.60;;
70796;SDS011;63842;52.144;5.360;2024-01-30T14:51:21;8.85;;;2.47;;
70796;SDS011;63842;52.144;5.360;2024-01-30T14:53:48;4.72;;;1.80;;
70796;SDS011;63842;52.144;5.360;2024-01-30T14:56:16;6.53;;;1.73;;
70796;SDS011;63842;52.144;5.360;2024-01-30T14:58:44;7.28;;;2.15;;
70796;SDS011;63842;52.144;5.360;2024-01-30T15:01:11;6.10;;;2.20;;
70796;SDS011;63842;52.144;5.360;2024-01-30T15:03:39;7.40;;;2.30;;
70796;SDS011;63842;52.144;5.360;2024-01-30T15:06:07;6.38;;;2.42;;
70796;SDS011;63842;52.144;5.360;2024-01-30T15:08:35;7.63;;;2.47;;
70796;SDS011;63842;52.144;5.360;2024-01-30T15:11:03;8.20;;;2.90;;
70796;SDS011;63842;52.144;5.360;2024-01-30T15:13:31;8.23;;;2.78;;
70796;SDS011;63842;52.144;5.360;2024-01-30T15:15:59;8.07;;;2.80;;
70796;SDS011;63842;52.144;5.360;2024-01-30T15:18:29;7.88;;;2.78;;
70796;SDS011;63842;52.144;5.360;2024-01-30T15:20:57;6.57;;;3.05;;
70796;SDS011;63842;52.144;5.360;2024-01-30T15:23:24;8.77;;;3.53;;
70796;SDS011;63842;52.144;5.360;2024-01-30T15:25:52;7.80;;;3.67;;
70796;SDS011;63842;52.144;5.360;2024-01-30T15:28:22;7.90;;;3.40;;
70796;SDS011;63842;52.144;5.360;2024-01-30T15:30:52;8.07;;;3.35;;
70796;SDS011;63842;52.144;5.360;2024-01-30T15:33:22;8.35;;;3.45;;
70796;SDS011;63842;52.144;5.360;2024-01-30T15:35:58;9.43;;;4.00;;
70796;SDS011;63842;52.144;5.360;2024-01-30T15:38:28;9.98;;;4.13;;
70796;SDS011;63842;52.144;5.360;2024-01-30T15:40:56;9.40;;;4.13;;
70796;SDS011;63842;52.144;5.360;2024-01-30T15:43:23;8.43;;;3.75;;
70796;SDS011;63842;52.144;5.360;2024-01-30T15:45:51;9.43;;;4.22;;
70796;SDS011;63842;52.144;5.360;2024-01-30T15:48:19;9.63;;;3.88;;
70796;SDS011;63842;52.144;5.360;2024-01-30T15:50:49;8.82;;;3.90;;
70796;SDS011;63842;52.144;5.360;2024-01-30T15:53:19;9.80;;;4.05;;
70796;SDS011;63842;52.144;5.360;2024-01-30T15:55:46;8.63;;;4.05;;
70796;SDS011;63842;52.144;5.360;2024-01-30T15:58:14;9.15;;;3.75;;
70796;SDS011;63842;52.144;5.360;2024-01-30T16:00:42;10.00;;;4.07;;
70796;SDS011;63842;52.144;5.360;2024-01-30T16:03:09;9.60;;;3.97;;
70796;SDS011;63842;52.144;5.360;2024-01-30T16:05:37;10.25;;;4.45;;
70796;SDS011;63842;52.144;5.360;2024-01-30T16:08:05;8.68;;;4.30;;
70796;SDS011;63842;52.144;5.360;2024-01-30T16:10:33;8.32;;;3.97;;
70796;SDS011;63842;52.144;5.360;2024-01-30T16:13:00;9.95;;;4.22;;
70796;SDS011;63842;52.144;5.360;2024-01-30T16:15:28;8.85;;;4.13;;
70796;SDS011;63842;52.144;5.360;2024-01-30T16:17:55;9.40;;;3.97;;
70796;SDS011;63842;52.144;5.360;2024-01-30T16:20:23;8.65;;;4.22;;
70796;SDS011;63842;52.144;5.360;2024-01-30T16:22:50;9.23;;;3.95;;
70796;SDS011;63842;52.144;5.360;2024-01-30T16:25:21;10.25;;;4.18;;
70796;SDS011;63842;52.144;5.360;2024-01-30T16:27:50;9.88;;;4.55;;
70796;SDS011;63842;52.144;5.360;2024-01-30T16:30:17;10.35;;;4.40;;
70796;SDS011;63842;52.144;5.360;2024-01-30T16:32:45;9.45;;;4.20;;
70796;SDS011;63842;52.144;5.360;2024-01-30T16:35:13;9.70;;;4.55;;
70796;SDS011;63842;52.144;5.360;2024-01-30T16:37:41;9.50;;;4.10;;
70796;SDS011;63842;52.144;5.360;2024-01-30T16:40:09;10.18;;;4.50;;
70796;SDS011;63842;52.144;5.360;2024-01-30T16:42:37;8.45;;;3.83;;
70796;SDS011;63842;52.144;5.360;2024-01-30T16:45:04;9.82;;;4.10;;
70796;SDS011;63842;52.144;5.360;2024-01-30T16:47:32;10.27;;;3.63;;
70796;SDS011;63842;52.144;5.360;2024-01-30T16:49:59;9.18;;;3.80;;
70796;SDS011;63842;52.144;5.360;2024-01-30T16:52:27;8.18;;;3.40;;
70796;SDS011;63842;52.144;5.360;2024-01-30T16:54:55;9.30;;;3.50;;
70796;SDS011;63842;52.144;5.360;2024-01-30T16:57:22;8.57;;;3.65;;
70796;SDS011;63842;52.144;5.360;2024-01-30T16:59:50;8.02;;;3.72;;
70796;SDS011;63842;52.144;5.360;2024-01-30T17:02:17;8.90;;;3.83;;
70796;SDS011;63842;52.144;5.360;2024-01-30T17:04:45;7.35;;;3.05;;
70796;SDS011;63842;52.144;5.360;2024-01-30T17:07:12;8.25;;;2.90;;
70796;SDS011;63842;52.144;5.360;2024-01-30T17:09:40;8.68;;;3.15;;
70796;SDS011;63842;52.144;5.360;2024-01-30T17:12:08;7.70;;;2.70;;
70796;SDS011;63842;52.144;5.360;2024-01-30T17:14:46;6.05;;;1.70;;
70796;SDS011;63842;52.144;5.360;2024-01-30T17:17:17;6.55;;;2.08;;
70796;SDS011;63842;52.144;5.360;2024-01-30T17:19:48;5.68;;;2.00;;
70796;SDS011;63842;52.144;5.360;2024-01-30T17:22:16;7.90;;;2.05;;
70796;SDS011;63842;52.144;5.360;2024-01-30T17:24:45;7.05;;;1.88;;
70796;SDS011;63842;52.144;5.360;2024-01-30T17:27:16;6.72;;;2.00;;
70796;SDS011;63842;52.144;5.360;2024-01-30T17:29:44;6.22;;;2.10;;
70796;SDS011;63842;52.144;5.360;2024-01-30T17:32:12;6.38;;;1.73;;
70796;SDS011;63842;52.144;5.360;2024-01-30T17:34:39;5.22;;;1.52;;
70796;SDS011;63842;52.144;5.360;2024-01-30T17:37:09;5.38;;;1.65;;
70796;SDS011;63842;52.144;5.360;2024-01-30T17:39:37;5.55;;;1.60;;
70796;SDS011;63842;52.144;5.360;2024-01-30T17:42:04;6.60;;;1.58;;
70796;SDS011;63842;52.144;5.360;2024-01-30T17:44:32;6.35;;;1.70;;
70796;SDS011;63842;52.144;5.360;2024-01-30T17:47:02;6.65;;;1.70;;
70796;SDS011;63842;52.144;5.360;2024-01-30T17:49:30;6.15;;;1.90;;
70796;SDS011;63842;52.144;5.360;2024-01-30T17:51:57;5.20;;;1.73;;
70796;SDS011;63842;52.144;5.360;2024-01-30T17:54:25;6.18;;;1.77;;
70796;SDS011;63842;52.144;5.360;2024-01-30T17:56:52;4.85;;;1.55;;
70796;SDS011;63842;52.144;5.360;2024-01-30T17:59:20;6.70;;;1.73;;
70796;SDS011;63842;52.144;5.360;2024-01-30T18:01:48;3.80;;;1.55;;
70796;SDS011;63842;52.144;5.360;2024-01-30T18:04:16;5.63;;;1.90;;
70796;SDS011;63842;52.144;5.360;2024-01-30T18:06:51;5.60;;;1.77;;
70796;SDS011;63842;52.144;5.360;2024-01-30T18:09:23;6.32;;;2.08;;
70796;SDS011;63842;52.144;5.360;2024-01-30T18:11:52;6.22;;;1.73;;
70796;SDS011;63842;52.144;5.360;2024-01-30T18:14:19;6.18;;;1.75;;
70796;SDS011;63842;52.144;5.360;2024-01-30T18:16:48;7.25;;;1.90;;
70796;SDS011;63842;52.144;5.360;2024-01-30T18:19:15;8.98;;;1.98;;
70796;SDS011;63842;52.144;5.360;2024-01-30T18:21:44;5.72;;;1.88;;
70796;SDS011;63842;52.144;5.360;2024-01-30T18:24:12;10.45;;;2.75;;
70796;SDS011;63842;52.144;5.360;2024-01-30T18:26:39;9.93;;;2.92;;
70796;SDS011;63842;52.144;5.360;2024-01-30T18:29:07;12.80;;;2.70;;
70796;SDS011;63842;52.144;5.360;2024-01-30T18:31:34;10.88;;;2.50;;
70796;SDS011;63842;52.144;5.360;2024-01-30T18:34:02;9.80;;;2.97;;
70796;SDS011;63842;52.144;5.360;2024-01-30T18:36:29;10.73;;;2.40;;
70796;SDS011;63842;52.144;5.360;2024-01-30T18:38:57;8.45;;;2.15;;
70796;SDS011;63842;52.144;5.360;2024-01-30T18:41:24;10.30;;;2.08;;
70796;SDS011;63842;52.144;5.360;2024-01-30T18:43:52;7.13;;;1.77;;
70796;SDS011;63842;52.144;5.360;2024-01-30T18:46:19;9.70;;;1.77;;
70796;SDS011;63842;52.144;5.360;2024-01-30T18:48:49;12.27;;;2.33;;
70796;SDS011;63842;52.144;5.360;2024-01-30T18:51:17;10.15;;;1.73;;
70796;SDS011;63842;52.144;5.360;2024-01-30T18:53:46;13.27;;;1.73;;
70796;SDS011;63842;52.144;5.360;2024-01-30T18:56:19;7.63;;;1.75;;
70796;SDS011;63842;52.144;5.360;2024-01-30T18:58:50;8.77;;;1.58;;
70796;SDS011;63842;52.144;5.360;2024-01-30T19:01:18;10.40;;;1.98;;
70796;SDS011;63842;52.144;5.360;2024-01-30T19:03:45;9.93;;;2.05;;
70796;SDS011;63842;52.144;5.360;2024-01-30T19:06:13;7.35;;;1.50;;
70796;SDS011;63842;52.144;5.360;2024-01-30T19:08:41;7.75;;;1.63;;
70796;SDS011;63842;52.144;5.360;2024-01-30T19:11:18;9.07;;;1.90;;
70796;SDS011;63842;52.144;5.360;2024-01-30T19:13:45;7.97;;;1.50;;
70796;SDS011;63842;52.144;5.360;2024-01-30T19:16:13;8.82;;;1.80;;
70796;SDS011;63842;52.144;5.360;2024-01-30T19:18:41;10.75;;;1.65;;
70796;SDS011;63842;52.144;5.360;2024-01-30T19:21:10;10.13;;;1.75;;
70796;SDS011;63842;52.144;5.360;2024-01-30T19:23:38;8.52;;;1.85;;
70796;SDS011;63842;52.144;5.360;2024-01-30T19:26:07;12.75;;;1.88;;
70796;SDS011;63842;52.144;5.360;2024-01-30T19:28:34;9.70;;;1.52;;
70796;SDS011;63842;52.144;5.360;2024-01-30T19:31:02;11.27;;;2.00;;
70796;SDS011;63842;52.144;5.360;2024-01-30T19:33:29;11.00;;;2.35;;
70796;SDS011;63842;52.144;5.360;2024-01-30T19:36:00;10.05;;;1.77;;
70796;SDS011;63842;52.144;5.360;2024-01-30T19:38:27;10.57;;;1.50;;
70796;SDS011;63842;52.144;5.360;2024-01-30T19:40:55;7.82;;;1.80;;
70796;SDS011;63842;52.144;5.360;2024-01-30T19:43:23;7.05;;;1.70;;
70796;SDS011;63842;52.144;5.360;2024-01-30T19:45:51;11.88;;;1.73;;
70796;SDS011;63842;52.144;5.360;2024-01-30T19:48:19;10.63;;;2.28;;
70796;SDS011;63842;52.144;5.360;2024-01-30T19:50:47;6.68;;;1.42;;
70796;SDS011;63842;52.144;5.360;2024-01-30T19:53:14;10.90;;;1.58;;
70796;SDS011;63842;52.144;5.360;2024-01-30T19:55:42;9.88;;;1.90;;
70796;SDS011;63842;52.144;5.360;2024-01-30T19:58:09;7.72;;;1.70;;
70796;SDS011;63842;52.144;5.360;2024-01-30T20:00:37;10.23;;;2.35;;
70796;SDS011;63842;52.144;5.360;2024-01-30T20:03:04;11.20;;;2.45;;
70796;SDS011;63842;52.144;5.360;2024-01-30T20:05:31;10.27;;;2.10;;
70796;SDS011;63842;52.144;5.360;2024-01-30T20:07:59;8.38;;;2.00;;
70796;SDS011;63842;52.144;5.360;2024-01-30T20:10:26;14.05;;;3.25;;
70796;SDS011;63842;52.144;5.360;2024-01-30T20:12:54;9.25;;;2.10;;
70796;SDS011;63842;52.144;5.360;2024-01-30T20:15:22;13.13;;;2.30;;
70796;SDS011;63842;52.144;5.360;2024-01-30T20:17:49;6.75;;;2.22;;
70796;SDS011;63842;52.144;5.360;2024-01-30T20:20:20;10.30;;;1.80;;
70796;SDS011;63842;52.144;5.360;2024-01-30T20:22:47;12.35;;;2.15;;
70796;SDS011;63842;52.144;5.360;2024-01-30T20:25:15;11.32;;;1.88;;
70796;SDS011;63842;52.144;5.360;2024-01-30T20:27:46;8.55;;;1.80;;
70796;SDS011;63842;52.144;5.360;2024-01-30T20:30:14;9.68;;;1.92;;
70796;SDS011;63842;52.144;5.360;2024-01-30T20:32:43;13.23;;;1.90;;
70796;SDS011;63842;52.144;5.360;2024-01-30T20:35:11;11.32;;;1.88;;
70796;SDS011;63842;52.144;5.360;2024-01-30T20:37:41;13.38;;;2.58;;
70796;SDS011;63842;52.144;5.360;2024-01-30T20:40:09;8.20;;;1.60;;
70796;SDS011;63842;52.144;5.360;2024-01-30T20:42:38;8.90;;;1.50;;
70796;SDS011;63842;52.144;5.360;2024-01-30T20:45:05;10.85;;;1.70;;
70796;SDS011;63842;52.144;5.360;2024-01-30T20:47:33;12.90;;;1.90;;
70796;SDS011;63842;52.144;5.360;2024-01-30T20:50:01;10.77;;;1.92;;
70796;SDS011;63842;52.144;5.360;2024-01-30T20:52:28;8.15;;;1.55;;
70796;SDS011;63842;52.144;5.360;2024-01-30T20:54:56;12.90;;;1.95;;
70796;SDS011;63842;52.144;5.360;2024-01-30T20:57:24;10.35;;;1.75;;
70796;SDS011;63842;52.144;5.360;2024-01-30T20:59:51;7.85;;;1.45;;
70796;SDS011;63842;52.144;5.360;2024-01-30T21:02:19;13.57;;;2.10;;
70796;SDS011;63842;52.144;5.360;2024-01-30T21:04:46;6.93;;;1.50;;
70796;SDS011;63842;52.144;5.360;2024-01-30T21:07:14;7.28;;;1.48;;
70796;SDS011;63842;52.144;5.360;2024-01-30T21:09:41;11.07;;;1.70;;
70796;SDS011;63842;52.144;5.360;2024-01-30T21:12:09;10.77;;;1.50;;
70796;SDS011;63842;52.144;5.360;2024-01-30T21:14:36;7.88;;;1.48;;
70796;SDS011;63842;52.144;5.360;2024-01-30T21:17:04;8.13;;;1.30;;
70796;SDS011;63842;52.144;5.360;2024-01-30T21:19:32;8.30;;;1.33;;
70796;SDS011;63842;52.144;5.360;2024-01-30T21:21:59;5.18;;;1.10;;
70796;SDS011;63842;52.144;5.360;2024-01-30T21:24:30;8.02;;;1.13;;
70796;SDS011;63842;52.144;5.360;2024-01-30T21:26:58;5.60;;;1.10;;
70796;SDS011;63842;52.144;5.360;2024-01-30T21:29:25;6.60;;;1.13;;